DW8305 Hannover DE current weather conditions

sailwx.info

Air temperature 12.8° C
Dewpoint 11.7° C

Last reported at 2019-Aug-21 00:02 UTC.
Time now 2019-Aug-21 01:09 UTC

Location: N 52°24' E 009°44'.
View on Google Maps.

See reports from other nearby stations

  
Tides and Currents Weather Stations Pressure Air Temp Water Temp Dewpoint Dewpoint Depression Visibility Wind Speed Wind Dir Waves Ship Positions
date/time (UTC)wind fromknots sea level pressurealtimeterstation pressurevisibilityair tempwater tempwave heightnotes
2019-Aug-21 00:02 12.8
2019-Aug-20 23:52 12.8
2019-Aug-20 23:42 135 0 gusting 0 13.3
2019-Aug-20 23:32 13.3
2019-Aug-20 23:22 13.9
2019-Aug-20 23:12 13.9
2019-Aug-20 23:02 13.9
2019-Aug-20 22:52 293 0 gusting 1 13.9
2019-Aug-20 22:42 14.4
2019-Aug-20 22:32 225 0 gusting 0 14.4
2019-Aug-20 22:22 15.0
2019-Aug-20 22:12 248 0 gusting 1 15.0
2019-Aug-20 22:02 15.6
2019-Aug-20 21:52 15.6
2019-Aug-20 21:42 16.1
2019-Aug-20 21:32 270 0 gusting 1 16.7
2019-Aug-20 21:22 248 5 gusting 7 17.2
2019-Aug-20 21:12 248 4 gusting 5 17.2
2019-Aug-20 21:02 293 0 gusting 1 17.2
2019-Aug-20 20:52 315 1 gusting 1 17.2
2019-Aug-20 20:42 293 0 gusting 1 17.2
2019-Aug-20 20:32 293 0 gusting 0 17.8
2019-Aug-20 20:22 17.8
2019-Aug-20 20:12 270 0 gusting 0 17.8
2019-Aug-20 20:02 270 1 gusting 2 18.3
2019-Aug-20 19:52 293 0 gusting 1 18.3
2019-Aug-20 19:42 270 2 gusting 5 18.9
2019-Aug-20 19:32 270 3 gusting 6 18.9
2019-Aug-20 19:22 270 1 gusting 3 18.9
2019-Aug-20 19:12 270 1 gusting 2 18.9
2019-Aug-20 19:02 203 1 gusting 2 19.4
2019-Aug-20 18:52 225 2 gusting 3 19.4
2019-Aug-20 18:42 19.4
2019-Aug-20 18:32 248 0 gusting 2 20.0
2019-Aug-20 18:22 225 0 gusting 1 20.0
2019-Aug-20 18:12 225 0 gusting 1 20.6
2019-Aug-20 18:02 270 1 gusting 1 20.6
2019-Aug-20 17:52 248 1 gusting 1 21.1
2019-Aug-20 17:42 225 2 gusting 5 21.1
2019-Aug-20 17:32 270 1 gusting 2 21.1
2019-Aug-20 17:22 203 2 gusting 3 21.1
2019-Aug-20 17:12 225 2 gusting 5 21.1
2019-Aug-20 17:02 225 1 gusting 3 21.1
2019-Aug-20 16:52 248 1 gusting 3 21.1
2019-Aug-20 16:42 270 3 gusting 5 21.7
2019-Aug-20 16:32 270 1 gusting 2 21.7
2019-Aug-20 16:22 248 4 gusting 6 21.7
2019-Aug-20 16:12 293 3 gusting 6 21.7
2019-Aug-20 16:02 248 4 gusting 6 21.7
2019-Aug-20 15:52 293 3 gusting 5 21.7
2019-Aug-20 15:42 248 3 gusting 5 21.7
2019-Aug-20 15:32 248 2 gusting 4 21.7
2019-Aug-20 15:22 270 4 gusting 6 21.7
2019-Aug-20 15:12 270 3 gusting 4 22.2
2019-Aug-20 15:02 270 3 gusting 5 22.2
2019-Aug-20 14:52 293 1 gusting 2 21.7
2019-Aug-20 14:42 270 2 gusting 5 21.7
2019-Aug-20 14:32 270 5 gusting 6 21.7
2019-Aug-20 14:22 270 2 gusting 5 21.7
2019-Aug-20 14:12 270 4 gusting 5 21.7
2019-Aug-20 14:02 270 4 gusting 6 21.7
2019-Aug-20 13:52 270 1 gusting 2 21.7
2019-Aug-20 13:42 248 2 gusting 3 21.7
2019-Aug-20 13:32 270 4 gusting 6 21.1
2019-Aug-20 13:22 270 5 gusting 6 21.1
2019-Aug-20 13:12 293 5 gusting 8 21.7
2019-Aug-20 13:02 270 5 gusting 7 21.7
2019-Aug-20 12:52 270 4 gusting 7 21.1
2019-Aug-20 12:42 225 6 gusting 9 21.1
2019-Aug-20 12:32 293 4 gusting 6 21.1
2019-Aug-20 12:22 135 3 gusting 6 21.1
2019-Aug-20 12:12 203 3 gusting 6 21.1
2019-Aug-20 12:02 270 5 gusting 7 20.6
2019-Aug-20 11:52 248 4 gusting 6 20.6
2019-Aug-20 11:42 248 3 gusting 6 20.6
2019-Aug-20 11:32 225 3 gusting 4 20.6
2019-Aug-20 11:22 270 4 gusting 6 20.6
2019-Aug-20 11:12 270 5 gusting 7 20.6
2019-Aug-20 11:02 293 3 gusting 6 20.6
2019-Aug-20 10:52 270 5 gusting 8 21.1
2019-Aug-20 10:42 270 4 gusting 6 21.1
2019-Aug-20 10:32 158 4 gusting 6 20.6
2019-Aug-20 10:22 248 4 gusting 9 20.6
2019-Aug-20 10:12 270 4 gusting 6 20.6
2019-Aug-20 10:02 225 1 gusting 2 20.0
2019-Aug-20 09:52 225 5 gusting 6 20.0
2019-Aug-20 09:42 270 2 gusting 3 20.0
2019-Aug-20 09:32 203 5 gusting 7 20.0
2019-Aug-20 09:22 225 6 gusting 8 19.4
2019-Aug-20 09:12 225 5 gusting 6 18.9
2019-Aug-20 09:02 248 4 gusting 7 18.9
2019-Aug-20 08:52 225 5 gusting 6 18.9
2019-Aug-20 08:42 248 4 gusting 7 18.3
2019-Aug-20 08:32 225 4 gusting 6 18.3
2019-Aug-20 08:22 293 4 gusting 6 18.3
2019-Aug-20 08:12 248 5 gusting 8 18.3
2019-Aug-20 08:02 270 5 gusting 9 18.3
2019-Aug-20 07:52 293 2 gusting 5 18.3
2019-Aug-20 07:42 293 3 gusting 5 17.8
2019-Aug-20 07:32 270 4 gusting 11 17.8
2019-Aug-20 07:22 293 1 gusting 3 17.2
2019-Aug-20 07:12 225 2 gusting 4 17.2
2019-Aug-20 07:02 270 3 gusting 5 16.7
2019-Aug-20 06:52 248 1 gusting 2 16.7
2019-Aug-20 06:42 203 1 gusting 2 16.1
2019-Aug-20 06:32 225 2 gusting 3 16.1
2019-Aug-20 06:22 270 1 gusting 5 15.6
2019-Aug-20 06:12 203 2 gusting 6 15.6
2019-Aug-20 06:02 225 3 gusting 6 15.0
2019-Aug-20 05:52 225 2 gusting 4 15.0
2019-Aug-20 05:42 248 2 gusting 3 15.0
2019-Aug-20 05:32 14.4
2019-Aug-20 05:22 135 0 gusting 1 14.4
2019-Aug-20 05:12 225 0 gusting 1 13.9
2019-Aug-20 05:02 270 0 gusting 1 13.3
2019-Aug-20 04:52 248 1 gusting 2 12.8
2019-Aug-20 04:42 203 0 gusting 1 12.2
2019-Aug-20 04:32 11.1
2019-Aug-20 04:22 11.1
2019-Aug-20 04:12 11.1
2019-Aug-20 04:02 11.1
2019-Aug-20 03:52 11.1
2019-Aug-20 03:42 11.1
2019-Aug-20 03:32 135 0 gusting 1 11.7
2019-Aug-20 03:22 135 1 gusting 1 11.7
2019-Aug-20 03:12 135 0 gusting 0 11.7
2019-Aug-20 03:02 11.7
2019-Aug-20 02:52 135 0 gusting 1 12.2
2019-Aug-20 02:42 135 0 gusting 0 12.2
2019-Aug-20 02:32 12.2
2019-Aug-20 02:22 12.2
2019-Aug-20 02:12 12.8
2019-Aug-20 02:02 12.8
2019-Aug-20 01:52 12.8
2019-Aug-20 01:42 12.8
2019-Aug-20 01:32 12.8
2019-Aug-20 01:22 135 0 gusting 1 13.3
2019-Aug-20 01:12 13.3
2019-Aug-20 01:02 13.9
2019-Aug-20 00:52 13.9
2019-Aug-20 00:42 13.9
2019-Aug-20 00:32 13.9
2019-Aug-20 00:22 13.9
2019-Aug-20 00:12 14.4
2019-Aug-20 00:02 14.4
2019-Aug-19 23:52 14.4
2019-Aug-19 23:42 15.0
2019-Aug-19 23:32 15.0
2019-Aug-19 23:22 15.0
2019-Aug-19 23:12 293 2 gusting 3 15.6
2019-Aug-19 23:02 270 2 gusting 3 15.6
2019-Aug-19 22:52 270 1 gusting 4 14.4
2019-Aug-19 22:42 338 0 gusting 1 14.4
2019-Aug-19 22:32 13.9
2019-Aug-19 22:22 13.9
2019-Aug-19 22:12 13.9
2019-Aug-19 22:02 13.9
2019-Aug-19 21:52 13.9
2019-Aug-19 21:42 14.4
2019-Aug-19 21:32 14.4
2019-Aug-19 21:22 14.4
2019-Aug-19 21:12 15.0
2019-Aug-19 21:02 15.0
2019-Aug-19 20:52 16.1
2019-Aug-19 20:42 16.7
2019-Aug-19 20:32 16.7
2019-Aug-19 20:22 17.2
2019-Aug-19 20:12 17.2
2019-Aug-19 20:02 17.8
2019-Aug-19 19:52 225 0 gusting 1 17.8
2019-Aug-19 19:42 18.3
2019-Aug-19 19:32 18.3
2019-Aug-19 19:22 225 1 gusting 2 18.3
2019-Aug-19 19:12 225 0 gusting 2 18.9
2019-Aug-19 19:02 225 1 gusting 2 18.9
2019-Aug-19 18:52 225 1 gusting 2 19.4
2019-Aug-19 18:42 225 2 gusting 3 19.4
2019-Aug-19 18:32 225 1 gusting 2 20.0
2019-Aug-19 18:22 225 1 gusting 1 20.0
2019-Aug-19 18:12 225 1 gusting 3 20.6
2019-Aug-19 18:02 225 2 gusting 2 20.6
2019-Aug-19 17:52 203 1 gusting 2 21.1
2019-Aug-19 17:42 248 2 gusting 3 21.1
2019-Aug-19 17:32 225 1 gusting 2 21.7
2019-Aug-19 17:22 225 2 gusting 6 21.7
2019-Aug-19 17:12 270 3 gusting 6 21.7
2019-Aug-19 17:02 248 3 gusting 5 22.2
2019-Aug-19 16:52 270 5 gusting 6 22.8
2019-Aug-19 16:42 270 5 gusting 7 22.8
2019-Aug-19 16:32 225 4 gusting 7 22.8
2019-Aug-19 16:22 270 6 gusting 10 22.8
2019-Aug-19 16:12 225 4 gusting 7 22.8
2019-Aug-19 16:02 203 3 gusting 5 22.8
2019-Aug-19 15:52 248 6 gusting 7 22.8
2019-Aug-19 15:42 270 6 gusting 9 22.8
2019-Aug-19 15:32 225 5 gusting 8 22.8
2019-Aug-19 15:22 248 7 gusting 9 22.8
2019-Aug-19 15:12 270 5 gusting 8 22.2
2019-Aug-19 15:02 225 7 gusting 13 22.2
2019-Aug-19 14:52 270 6 gusting 8 22.2
2019-Aug-19 14:42 270 6 gusting 7 22.2
2019-Aug-19 14:32 248 6 gusting 9 21.7
2019-Aug-19 14:22 270 6 gusting 9 22.2
2019-Aug-19 14:12 270 4 gusting 6 22.2
2019-Aug-19 14:02 225 6 gusting 8 22.2
2019-Aug-19 13:52 270 5 gusting 7 22.8
2019-Aug-19 13:42 270 5 gusting 8 22.8
2019-Aug-19 13:32 225 7 gusting 13 22.2
2019-Aug-19 13:22 248 6 gusting 10 22.2
2019-Aug-19 13:12 293 5 gusting 9 22.2
2019-Aug-19 13:02 270 5 gusting 8 21.7
2019-Aug-19 12:52 248 6 gusting 10 21.7
2019-Aug-19 12:42 248 8 gusting 13 21.7
2019-Aug-19 12:32 248 9 gusting 14 21.7
2019-Aug-19 12:22 248 8 gusting 13 21.7
2019-Aug-19 12:12 248 7 gusting 11 21.7
2019-Aug-19 12:02 293 10 gusting 14 21.1
2019-Aug-19 11:52 270 6 gusting 11 21.1
2019-Aug-19 11:42 248 7 gusting 11 21.1
2019-Aug-19 11:32 248 7 gusting 10 20.6
2019-Aug-19 11:22 225 4 gusting 8 20.6
2019-Aug-19 11:12 270 6 gusting 10 20.6
2019-Aug-19 11:02 225 6 gusting 10 20.6
2019-Aug-19 10:52 270 6 gusting 9 20.0
2019-Aug-19 10:42 248 6 gusting 12 20.0
2019-Aug-19 10:32 270 5 gusting 8 20.0
2019-Aug-19 10:22 270 4 gusting 6 20.0
2019-Aug-19 10:12 225 8 gusting 12 19.4
2019-Aug-19 10:02 248 4 gusting 7 20.0
2019-Aug-19 09:52 225 5 gusting 9 19.4
2019-Aug-19 09:42 248 6 gusting 11 19.4
2019-Aug-19 09:32 270 5 gusting 7 18.9
2019-Aug-19 09:22 225 5 gusting 9 18.9
2019-Aug-19 09:12 225 6 gusting 11 18.3
2019-Aug-19 09:02 225 5 gusting 8 17.8
2019-Aug-19 08:52 270 5 gusting 6 17.8
2019-Aug-19 08:42 248 6 gusting 10 17.8
2019-Aug-19 08:32 270 6 gusting 9 17.2
2019-Aug-19 08:22 270 8 gusting 14 17.2
2019-Aug-19 08:12 270 6 gusting 13 17.2
2019-Aug-19 08:02 270 5 gusting 9 17.2
2019-Aug-19 07:52 248 4 gusting 6 17.2
2019-Aug-19 07:42 270 4 gusting 6 17.2
2019-Aug-19 07:32 248 6 gusting 8 16.7
2019-Aug-19 07:22 225 6 gusting 11 16.7
2019-Aug-19 07:12 248 6 gusting 10 16.1
2019-Aug-19 07:02 248 6 gusting 8 16.1
2019-Aug-19 06:52 248 5 gusting 8 16.1
2019-Aug-19 06:42 248 6 gusting 10 16.1
2019-Aug-19 06:32 248 6 gusting 11 16.1
2019-Aug-19 06:22 270 3 gusting 5 15.6
2019-Aug-19 06:12 225 5 gusting 6 15.6
2019-Aug-19 06:02 270 3 gusting 5 15.6
2019-Aug-19 05:52 270 2 gusting 4 15.0
2019-Aug-19 05:42 248 3 gusting 8 15.0
2019-Aug-19 05:32 225 0 gusting 1 15.0
2019-Aug-19 05:22 225 4 gusting 6 14.4
2019-Aug-19 05:12 225 3 gusting 5 14.4
2019-Aug-19 05:02 225 4 gusting 6 14.4
2019-Aug-19 04:52 14.4
2019-Aug-19 04:42 158 0 gusting 1 14.4
2019-Aug-19 04:32 248 1 gusting 4 14.4
2019-Aug-19 04:22 158 2 gusting 4 14.4
2019-Aug-19 04:12 203 0 gusting 1 15.0
2019-Aug-19 04:02 225 1 gusting 3 15.0
2019-Aug-19 03:52 225 0 gusting 1 15.0
2019-Aug-19 03:42 15.0
2019-Aug-19 03:32 180 1 gusting 1 15.6
2019-Aug-19 03:22 248 1 gusting 3 15.6
2019-Aug-19 03:12 225 1 gusting 3 15.6
2019-Aug-19 03:02 248 3 gusting 6 15.6
2019-Aug-19 02:52 225 2 gusting 4 15.6
2019-Aug-19 02:42 225 4 gusting 5 16.1
2019-Aug-19 02:32 203 3 gusting 6 16.1
2019-Aug-19 02:22 248 2 gusting 4 16.1
2019-Aug-19 02:12 248 3 gusting 4 16.1
2019-Aug-19 02:02 248 2 gusting 4 16.1
2019-Aug-19 01:52 248 2 gusting 4 16.1
2019-Aug-19 01:42 225 3 gusting 5 15.6
2019-Aug-19 01:32 248 5 gusting 6 15.6
2019-Aug-19 01:22 225 1 gusting 2 15.6
2019-Aug-19 01:12 180 1 gusting 1 15.0
2019-Aug-19 01:02 135 1 gusting 3 15.0